createdAt,value
2022-09-10T00:00:44.829Z,16.78
2022-09-10T00:01:47.025Z,16.76
2022-09-10T00:02:52.066Z,16.74
2022-09-10T00:03:55.033Z,16.74
2022-09-10T00:04:57.399Z,16.72
2022-09-10T00:05:59.544Z,16.71
2022-09-10T00:07:01.707Z,16.70
2022-09-10T00:08:05.485Z,16.69
2022-09-10T00:09:09.839Z,16.67
2022-09-10T00:10:12.086Z,16.68
2022-09-10T00:11:15.186Z,16.66
2022-09-10T00:12:17.325Z,16.66
2022-09-10T00:13:24.948Z,16.65
2022-09-10T00:14:27.107Z,16.63
2022-09-10T00:15:29.261Z,16.61
2022-09-10T00:16:32.618Z,16.62
2022-09-10T00:17:36.903Z,16.62
2022-09-10T00:18:40.531Z,16.60
2022-09-10T00:19:43.638Z,16.59
2022-09-10T00:20:52.000Z,16.61
2022-09-10T00:21:54.130Z,16.58
2022-09-10T00:22:56.262Z,16.58
2022-09-10T00:23:58.571Z,16.58
2022-09-10T00:25:02.354Z,16.56
2022-09-10T00:26:12.749Z,16.56
2022-09-10T00:27:15.510Z,16.55
2022-09-10T00:28:17.941Z,16.55
2022-09-10T00:29:21.280Z,16.56
2022-09-10T00:30:23.426Z,16.54
2022-09-10T00:31:26.479Z,16.54
2022-09-10T00:32:28.711Z,16.54
2022-09-10T00:33:30.912Z,16.53
2022-09-10T00:34:33.052Z,16.52
2022-09-10T00:35:36.986Z,16.52
2022-09-10T00:36:41.589Z,16.50
2022-09-10T00:37:43.737Z,16.50
2022-09-10T00:38:46.983Z,16.50
2022-09-10T00:39:49.220Z,16.50
2022-09-10T00:40:51.505Z,16.49
2022-09-10T00:41:54.718Z,16.49
2022-09-10T00:42:56.955Z,16.47
2022-09-10T00:44:05.386Z,16.47
2022-09-10T00:45:07.909Z,16.47
2022-09-10T00:46:10.172Z,16.46
2022-09-10T00:47:17.808Z,16.45
2022-09-10T00:48:28.829Z,16.45
2022-09-10T00:49:36.836Z,16.43
2022-09-10T00:50:43.471Z,16.43
2022-09-10T00:51:47.771Z,16.42
2022-09-10T00:52:55.413Z,16.41
2022-09-10T00:53:59.138Z,16.41
2022-09-10T00:55:01.859Z,16.41
2022-09-10T00:56:08.593Z,16.40
2022-09-10T00:57:17.596Z,16.39
2022-09-10T00:58:21.120Z,16.39
2022-09-10T00:59:26.726Z,16.39
2022-09-10T01:00:28.868Z,16.38
2022-09-10T01:01:33.747Z,16.38
2022-09-10T01:02:36.168Z,16.37
2022-09-10T01:03:40.829Z,16.38
2022-09-10T01:04:43.579Z,16.36
2022-09-10T01:05:47.369Z,16.36
2022-09-10T01:06:52.048Z,16.36
2022-09-10T01:07:54.299Z,16.35
2022-09-10T01:08:58.915Z,16.35
2022-09-10T01:10:06.767Z,16.34
2022-09-10T01:11:46.656Z,16.35
2022-09-10T01:12:55.524Z,16.34
2022-09-10T01:14:16.209Z,16.32
2022-09-10T01:15:30.769Z,16.32
2022-09-10T01:16:54.127Z,16.30
2022-09-10T01:18:08.740Z,16.30
2022-09-10T01:19:14.837Z,16.29
2022-09-10T01:21:04.661Z,16.28
2022-09-10T01:22:28.382Z,16.26
2022-09-10T01:23:53.784Z,16.26
2022-09-10T01:25:03.257Z,16.25
2022-09-10T01:26:27.926Z,16.23
2022-09-10T01:27:44.289Z,16.24
2022-09-10T01:29:05.565Z,16.21
2022-09-10T01:30:25.257Z,16.20
2022-09-10T01:31:38.566Z,16.19
2022-09-10T01:32:56.655Z,16.18
2022-09-10T01:34:07.437Z,16.17
2022-09-10T01:35:22.545Z,16.17
2022-09-10T01:36:30.321Z,16.14
2022-09-10T01:37:37.143Z,16.15
2022-09-10T01:38:42.163Z,16.14
2022-09-10T01:39:47.433Z,16.11
2022-09-10T01:40:55.247Z,16.11
2022-09-10T01:42:00.290Z,16.10
2022-09-10T01:43:10.771Z,16.10
2022-09-10T01:44:48.030Z,16.09
2022-09-10T01:46:23.668Z,16.08
2022-09-10T01:47:47.408Z,16.07
2022-09-10T01:49:11.769Z,16.07
2022-09-10T01:50:45.375Z,16.05
2022-09-10T01:51:56.497Z,16.04
2022-09-10T01:53:10.699Z,16.03
2022-09-10T01:54:29.925Z,16.02
2022-09-10T01:55:52.639Z,16.01
2022-09-10T01:57:53.140Z,15.98
2022-09-10T01:59:03.890Z,15.98
2022-09-10T02:00:18.682Z,15.96
2022-09-10T02:01:36.051Z,15.94
2022-09-10T02:02:41.934Z,15.93
2022-09-10T02:03:47.994Z,15.92
2022-09-10T02:04:51.860Z,15.89
2022-09-10T02:05:55.856Z,15.88
2022-09-10T02:06:59.869Z,15.85
2022-09-10T02:08:09.900Z,15.86
2022-09-10T02:09:16.156Z,15.86
2022-09-10T02:10:18.634Z,15.84
2022-09-10T02:11:21.985Z,15.82
2022-09-10T02:12:28.282Z,15.81
2022-09-10T02:14:01.007Z,15.80
2022-09-10T02:15:33.187Z,15.80
2022-09-10T02:17:00.936Z,15.78
2022-09-10T02:18:03.182Z,15.76
2022-09-10T02:19:09.128Z,15.75
2022-09-10T02:20:14.496Z,15.74
2022-09-10T02:21:17.298Z,15.73
2022-09-10T02:22:20.980Z,15.72
2022-09-10T02:23:28.589Z,15.70
2022-09-10T02:24:30.753Z,15.69
2022-09-10T02:25:40.562Z,15.68
2022-09-10T02:26:44.550Z,15.66
2022-09-10T02:27:46.944Z,15.64
2022-09-10T02:28:50.294Z,15.64
2022-09-10T02:29:52.434Z,15.63
2022-09-10T02:30:55.176Z,15.61
2022-09-10T02:31:57.423Z,15.60
2022-09-10T02:32:59.585Z,15.60
2022-09-10T02:34:03.477Z,15.57
2022-09-10T02:35:06.361Z,15.57
2022-09-10T02:36:13.615Z,15.56
2022-09-10T02:37:16.989Z,15.56
2022-09-10T02:38:19.467Z,15.54
2022-09-10T02:39:22.595Z,15.53
2022-09-10T02:40:28.647Z,15.52
2022-09-10T02:41:34.237Z,15.51
2022-09-10T02:42:49.011Z,15.51
2022-09-10T02:43:56.585Z,15.50
2022-09-10T02:44:58.853Z,15.48
2022-09-10T02:46:07.445Z,15.47
2022-09-10T02:47:11.906Z,15.48
2022-09-10T02:48:14.175Z,15.45
2022-09-10T02:49:18.163Z,15.44
2022-09-10T02:50:20.759Z,15.43
2022-09-10T02:51:24.145Z,15.42
2022-09-10T02:52:34.583Z,15.43
2022-09-10T02:53:39.999Z,15.42
2022-09-10T02:54:52.316Z,15.41
2022-09-10T02:55:54.558Z,15.39
2022-09-10T02:56:56.927Z,15.38
2022-09-10T02:58:01.440Z,15.37
2022-09-10T02:59:03.894Z,15.36
2022-09-10T03:00:09.928Z,15.35
2022-09-10T03:01:15.496Z,15.34
2022-09-10T03:02:20.333Z,15.34
2022-09-10T03:03:23.449Z,15.31
2022-09-10T03:04:25.611Z,15.30
2022-09-10T03:05:27.760Z,15.28
2022-09-10T03:06:29.924Z,15.27
2022-09-10T03:07:34.496Z,15.27
2022-09-10T03:08:38.738Z,15.27
2022-09-10T03:09:41.193Z,15.25
2022-09-10T03:10:43.749Z,15.25
2022-09-10T03:11:46.819Z,15.23
2022-09-10T03:12:49.182Z,15.22
2022-09-10T03:13:52.267Z,15.22
2022-09-10T03:14:54.562Z,15.20
2022-09-10T03:15:58.965Z,15.20
2022-09-10T03:17:04.419Z,15.18
2022-09-10T03:18:06.746Z,15.17
2022-09-10T03:19:12.944Z,15.15
2022-09-10T03:20:15.417Z,15.14
2022-09-10T03:21:21.000Z,15.13
2022-09-10T03:22:23.173Z,15.13
2022-09-10T03:23:27.819Z,15.12
2022-09-10T03:24:31.715Z,15.11
2022-09-10T03:25:36.860Z,15.11
2022-09-10T03:26:39.957Z,15.10
2022-09-10T03:27:42.076Z,15.07
2022-09-10T03:28:45.481Z,15.07
2022-09-10T03:29:49.616Z,15.05
2022-09-10T03:30:52.428Z,15.03
2022-09-10T03:31:55.099Z,15.02
2022-09-10T03:32:59.197Z,15.02
2022-09-10T03:34:01.482Z,15.01
2022-09-10T03:35:04.830Z,15.01
2022-09-10T03:36:08.232Z,14.98
2022-09-10T03:37:10.625Z,14.97
2022-09-10T03:38:13.838Z,14.95
2022-09-10T03:39:16.542Z,14.95
2022-09-10T03:40:23.260Z,14.93
2022-09-10T03:41:28.395Z,14.92
2022-09-10T03:42:33.606Z,14.91
2022-09-10T03:44:58.224Z,14.88
2022-09-10T03:46:00.429Z,14.87
2022-09-10T03:47:03.022Z,14.87
2022-09-10T03:48:05.248Z,14.86
2022-09-10T03:49:07.881Z,14.84
2022-09-10T03:50:10.533Z,14.82
2022-09-10T03:51:12.998Z,14.82
2022-09-10T03:52:15.122Z,14.81
2022-09-10T03:53:19.328Z,14.79
2022-09-10T03:54:21.642Z,14.78
2022-09-10T03:55:24.653Z,14.77
2022-09-10T03:56:27.703Z,14.75
2022-09-10T03:57:30.041Z,14.76
2022-09-10T03:58:32.634Z,14.73
2022-09-10T03:59:35.579Z,14.73
2022-09-10T04:00:38.055Z,14.72
2022-09-10T04:01:42.402Z,14.71
2022-09-10T04:02:46.947Z,14.70
2022-09-10T04:03:49.580Z,14.68
2022-09-10T04:04:51.727Z,14.68
2022-09-10T04:05:54.025Z,14.66
2022-09-10T04:06:56.155Z,14.64
2022-09-10T04:08:02.813Z,14.64
2022-09-10T04:09:04.975Z,14.63
2022-09-10T04:10:07.577Z,14.61
2022-09-10T04:11:10.372Z,14.60
2022-09-10T04:12:12.896Z,14.59
2022-09-10T04:13:15.670Z,14.55
2022-09-10T04:14:18.203Z,14.55
2022-09-10T04:15:21.999Z,14.52
2022-09-10T04:16:24.900Z,14.51
2022-09-10T04:17:28.400Z,14.51
2022-09-10T04:18:32.211Z,14.49
2022-09-10T04:19:35.477Z,14.48
2022-09-10T04:20:38.364Z,14.49
2022-09-10T04:21:44.652Z,14.46
2022-09-10T04:22:47.978Z,14.45
2022-09-10T04:23:55.459Z,14.43
2022-09-10T04:24:57.637Z,14.41
2022-09-10T04:25:59.995Z,14.41
2022-09-10T04:27:03.135Z,14.40
2022-09-10T04:28:07.896Z,14.39
2022-09-10T04:29:10.232Z,14.38
2022-09-10T04:30:13.264Z,14.37
2022-09-10T04:31:15.527Z,14.35
2022-09-10T04:32:17.929Z,14.35
2022-09-10T04:33:20.653Z,14.33
2022-09-10T04:34:22.942Z,14.32
2022-09-10T04:35:26.751Z,14.31
2022-09-10T04:36:29.430Z,14.30
2022-09-10T04:37:35.660Z,14.29
2022-09-10T04:38:41.779Z,14.28
2022-09-10T04:39:44.539Z,14.28
2022-09-10T04:40:47.749Z,14.27
2022-09-10T04:41:49.891Z,14.27
2022-09-10T04:42:52.318Z,14.26
2022-09-10T04:43:54.481Z,14.25
2022-09-10T04:44:57.009Z,14.24
2022-09-10T04:45:59.286Z,14.23
2022-09-10T04:47:01.590Z,14.23
2022-09-10T04:48:07.322Z,14.21
2022-09-10T04:49:11.593Z,14.21
2022-09-10T04:50:16.657Z,14.21
2022-09-10T04:51:41.941Z,14.21
2022-09-10T04:52:44.111Z,14.20
2022-09-10T04:53:46.551Z,14.19
2022-09-10T04:54:49.239Z,14.20
2022-09-10T04:55:55.645Z,14.19
2022-09-10T04:56:57.800Z,14.18
2022-09-10T04:58:02.280Z,14.17
2022-09-10T04:59:04.525Z,14.16
2022-09-10T05:00:10.781Z,14.16
2022-09-10T05:01:14.250Z,14.15
2022-09-10T05:02:18.596Z,14.15
2022-09-10T05:03:20.865Z,14.15
2022-09-10T05:04:24.760Z,14.15
2022-09-10T05:05:28.597Z,14.16
2022-09-10T05:06:30.885Z,14.15
2022-09-10T05:07:34.611Z,14.15
2022-09-10T05:08:37.641Z,14.16
2022-09-10T05:09:40.764Z,14.16
2022-09-10T05:10:45.987Z,14.19
2022-09-10T05:11:48.164Z,14.20
2022-09-10T05:12:50.945Z,14.21
2022-09-10T05:13:56.368Z,14.25
2022-09-10T05:15:10.655Z,14.29
2022-09-10T05:16:12.970Z,14.31
2022-09-10T05:17:15.823Z,14.34
2022-09-10T05:18:20.579Z,14.38
2022-09-10T05:19:23.307Z,14.40
2022-09-10T05:20:32.049Z,14.45
2022-09-10T05:21:34.835Z,14.48
2022-09-10T05:22:40.788Z,14.53
2022-09-10T05:23:43.321Z,14.55
2022-09-10T05:24:45.968Z,14.61
2022-09-10T05:25:51.872Z,14.66
2022-09-10T05:26:54.043Z,14.71
2022-09-10T05:27:57.632Z,14.77
2022-09-10T05:29:00.228Z,14.82
2022-09-10T05:30:03.301Z,14.89
2022-09-10T05:31:07.391Z,14.95
2022-09-10T05:32:13.483Z,15.02
2022-09-10T05:33:15.629Z,15.09
2022-09-10T05:34:17.976Z,15.17
2022-09-10T05:35:20.448Z,15.25
2022-09-10T05:36:32.144Z,15.35
2022-09-10T05:37:34.992Z,15.43
2022-09-10T05:38:40.110Z,15.51
2022-09-10T05:39:43.109Z,15.60
2022-09-10T05:40:45.753Z,15.71
2022-09-10T05:41:48.586Z,15.81
2022-09-10T05:42:50.904Z,15.91
2022-09-10T05:43:54.361Z,16.00
2022-09-10T05:44:56.832Z,16.10
2022-09-10T05:45:59.192Z,16.20
2022-09-10T05:47:02.231Z,16.31
2022-09-10T05:48:07.248Z,16.42
2022-09-10T05:49:10.303Z,16.54
2022-09-10T05:50:12.504Z,16.62
2022-09-10T05:51:14.787Z,16.74
2022-09-10T05:52:18.428Z,16.86
2022-09-10T05:53:21.784Z,16.95
2022-09-10T05:54:24.091Z,17.06
2022-09-10T05:55:27.250Z,17.18
2022-09-10T05:56:34.815Z,17.32
2022-09-10T05:57:37.456Z,17.42
2022-09-10T05:58:39.691Z,17.55
2022-09-10T05:59:43.206Z,17.69
2022-09-10T06:00:45.382Z,17.81
2022-09-10T06:01:51.509Z,17.95
2022-09-10T06:02:57.342Z,18.09
2022-09-10T06:04:11.296Z,18.24
2022-09-10T06:05:16.365Z,18.36
2022-09-10T06:06:19.725Z,18.51
2022-09-10T06:07:32.057Z,18.67
2022-09-10T06:08:35.727Z,18.81
2022-09-10T06:09:54.966Z,18.98
2022-09-10T06:11:11.954Z,19.12
2022-09-10T06:12:18.931Z,19.26
2022-09-10T06:13:22.051Z,19.39
2022-09-10T06:14:25.498Z,19.52
2022-09-10T06:15:38.090Z,19.66
2022-09-10T06:16:40.844Z,19.80
2022-09-10T06:17:43.232Z,19.92
2022-09-10T06:18:45.806Z,20.05
2022-09-10T06:19:52.026Z,20.18
2022-09-10T06:21:05.135Z,20.32
2022-09-10T06:22:07.465Z,20.46
2022-09-10T06:23:18.357Z,20.61
2022-09-10T06:24:23.655Z,20.73
2022-09-10T06:25:29.640Z,20.90
2022-09-10T06:26:35.620Z,21.04
2022-09-10T06:27:44.392Z,21.19
2022-09-10T06:28:47.597Z,21.36
2022-09-10T06:29:50.041Z,21.50
2022-09-10T06:30:52.460Z,21.65
2022-09-10T06:31:54.645Z,21.79
2022-09-10T06:32:56.791Z,21.93
2022-09-10T06:33:58.912Z,22.07
2022-09-10T06:35:04.271Z,22.22
2022-09-10T06:36:06.542Z,22.38
2022-09-10T06:37:09.533Z,22.53
2022-09-10T06:38:13.257Z,22.66
2022-09-10T06:39:15.718Z,22.80
2022-09-10T06:40:27.731Z,22.95
2022-09-10T06:41:31.180Z,23.08
2022-09-10T06:42:47.340Z,23.24
2022-09-10T06:43:49.692Z,23.36
2022-09-10T06:45:05.067Z,23.53
2022-09-10T06:48:37.033Z,23.83
2022-09-10T06:49:18.898Z,23.99
2022-09-10T06:50:23.299Z,24.12
2022-09-10T06:51:26.247Z,24.25
2022-09-10T06:52:29.870Z,24.36
2022-09-10T06:53:37.806Z,24.50
2022-09-10T06:54:40.650Z,24.61
2022-09-10T06:55:55.892Z,24.76
2022-09-10T06:57:01.948Z,24.89
2022-09-10T06:58:05.765Z,25.01
2022-09-10T06:59:09.545Z,25.13
2022-09-10T07:00:18.433Z,25.27
2022-09-10T07:01:25.885Z,25.37
2022-09-10T07:02:34.229Z,25.47
2022-09-10T07:03:36.786Z,25.59
2022-09-10T07:04:40.083Z,25.68
2022-09-10T07:05:43.128Z,25.76
2022-09-10T07:06:46.121Z,25.84
2022-09-10T07:07:52.542Z,25.92
2022-09-10T07:08:58.771Z,25.99
2022-09-10T07:10:04.714Z,26.05
2022-09-10T07:11:12.949Z,26.11
2022-09-10T07:12:15.373Z,26.15
2022-09-10T07:13:17.672Z,26.22
2022-09-10T07:14:19.949Z,26.26
2022-09-10T07:15:22.998Z,26.30
2022-09-10T07:16:28.339Z,26.34
2022-09-10T07:17:32.093Z,26.38
2022-09-10T07:18:35.587Z,26.42
2022-09-10T07:19:38.555Z,26.41
2022-09-10T07:20:47.947Z,26.41
2022-09-10T07:21:50.907Z,26.39
2022-09-10T07:22:55.350Z,26.34
2022-09-10T07:24:03.218Z,26.30
2022-09-10T07:25:07.298Z,26.24
2022-09-10T07:26:25.638Z,26.15
2022-09-10T07:27:29.605Z,26.10
2022-09-10T07:28:33.198Z,26.00
2022-09-10T07:29:35.370Z,25.94
2022-09-10T07:30:38.045Z,25.90
2022-09-10T07:31:41.722Z,25.84
2022-09-10T07:32:50.248Z,25.76
2022-09-10T07:34:01.905Z,25.70
2022-09-10T07:35:04.247Z,25.65
2022-09-10T07:36:06.609Z,25.61
2022-09-10T07:37:08.781Z,25.57
2022-09-10T07:38:20.834Z,25.54
2022-09-10T07:39:25.853Z,25.47
2022-09-10T07:40:32.085Z,25.42
2022-09-10T07:41:35.348Z,25.36
2022-09-10T07:42:39.399Z,25.30
2022-09-10T07:43:43.919Z,25.23
2022-09-10T07:44:46.964Z,25.14
2022-09-10T07:45:49.235Z,25.08
2022-09-10T07:46:52.861Z,25.00
2022-09-10T07:47:55.521Z,24.93
2022-09-10T07:48:59.988Z,24.85
2022-09-10T07:50:03.405Z,24.77
2022-09-10T07:51:10.743Z,24.70
2022-09-10T07:52:13.607Z,24.63
2022-09-10T07:53:24.011Z,24.53
2022-09-10T07:54:28.506Z,24.45
2022-09-10T07:55:32.267Z,24.38
2022-09-10T07:56:35.309Z,24.28
2022-09-10T07:57:40.724Z,24.21
2022-09-10T07:58:44.926Z,24.13
2022-09-10T07:59:48.591Z,24.06
2022-09-10T08:00:54.148Z,23.98
2022-09-10T08:01:58.777Z,23.90
2022-09-10T08:03:03.293Z,23.81
2022-09-10T08:04:06.511Z,23.74
2022-09-10T08:05:12.025Z,23.67
2022-09-10T08:06:15.976Z,23.61
2022-09-10T08:07:19.358Z,23.54
2022-09-10T08:08:22.446Z,23.48
2022-09-10T08:09:25.597Z,23.43
2022-09-10T08:10:30.660Z,23.39
2022-09-10T08:11:34.763Z,23.34
2022-09-10T08:12:39.692Z,23.29
2022-09-10T08:13:45.554Z,23.26
2022-09-10T08:14:48.655Z,23.22
2022-09-10T08:15:52.231Z,23.20
2022-09-10T08:16:54.718Z,23.16
2022-09-10T08:17:59.853Z,23.12
2022-09-10T08:19:03.807Z,23.10
2022-09-10T08:20:10.033Z,23.06
2022-09-10T08:21:15.585Z,23.03
2022-09-10T08:22:20.255Z,23.00
2022-09-10T08:23:32.089Z,22.98
2022-09-10T08:24:34.229Z,22.97
2022-09-10T08:25:38.147Z,22.95
2022-09-10T08:26:40.378Z,22.94
2022-09-10T08:27:42.863Z,22.94
2022-09-10T08:28:45.209Z,22.95
2022-09-10T08:29:47.690Z,22.93
2022-09-10T08:30:57.152Z,22.93
2022-09-10T08:32:00.669Z,22.94
2022-09-10T08:33:06.266Z,22.94
2022-09-10T08:34:11.698Z,22.95
2022-09-10T08:35:15.864Z,22.96
2022-09-10T08:36:19.113Z,22.96
2022-09-10T08:37:21.277Z,22.96
2022-09-10T08:38:45.043Z,22.99
2022-09-10T08:39:49.213Z,22.99
2022-09-10T08:40:54.654Z,23.01
2022-09-10T08:42:03.860Z,23.00
2022-09-10T08:43:07.407Z,23.03
2022-09-10T08:44:10.542Z,23.03
2022-09-10T08:45:19.336Z,23.04
2022-09-10T08:46:25.510Z,23.06
2022-09-10T08:47:55.374Z,23.09
2022-09-10T08:49:00.714Z,23.11
2022-09-10T08:50:27.525Z,23.15
2022-09-10T08:51:40.095Z,23.20
2022-09-10T08:52:45.099Z,23.24
2022-09-10T08:54:00.583Z,23.31
2022-09-10T08:55:17.863Z,23.39
2022-09-10T08:56:23.408Z,23.45
2022-09-10T08:57:41.958Z,23.54
2022-09-10T08:58:56.573Z,23.62
2022-09-10T09:00:01.711Z,23.70
2022-09-10T09:01:10.996Z,23.80
2022-09-10T09:02:47.069Z,23.91
2022-09-10T09:03:55.319Z,24.02
2022-09-10T09:05:03.021Z,24.12
2022-09-10T09:06:30.455Z,24.24
2022-09-10T09:07:40.373Z,24.37
2022-09-10T09:08:48.574Z,24.47
2022-09-10T09:10:01.931Z,24.57
2022-09-10T09:11:14.341Z,24.66
2022-09-10T09:12:52.761Z,24.78
2022-09-10T09:14:11.213Z,24.85
2022-09-10T09:15:35.351Z,24.90
2022-09-10T09:17:15.691Z,24.95
2022-09-10T09:18:37.673Z,25.00
2022-09-10T09:20:04.944Z,25.06
2022-09-10T09:21:24.275Z,25.10
2022-09-10T09:22:39.867Z,25.13
2022-09-10T09:24:13.566Z,25.20
2022-09-10T09:25:27.662Z,25.22
2022-09-10T09:26:35.913Z,25.27
2022-09-10T09:27:42.388Z,25.29
2022-09-10T09:29:00.442Z,25.31
2022-09-10T09:30:05.754Z,25.32
2022-09-10T09:31:16.155Z,25.35
2022-09-10T09:32:21.750Z,25.33
2022-09-10T09:33:25.288Z,25.34
2022-09-10T09:34:36.438Z,25.34
2022-09-10T09:36:03.698Z,25.32
2022-09-10T09:37:18.543Z,25.31
2022-09-10T09:38:45.140Z,25.31
2022-09-10T09:40:25.117Z,25.33
2022-09-10T09:41:42.403Z,25.36
2022-09-10T09:42:56.276Z,25.38
2022-09-10T09:44:11.974Z,25.42
2022-09-10T09:45:43.377Z,25.46
2022-09-10T09:46:49.608Z,25.49
2022-09-10T09:47:54.499Z,25.53
2022-09-10T09:49:10.587Z,25.57
2022-09-10T09:50:13.708Z,25.56
2022-09-10T09:51:21.542Z,25.57
2022-09-10T09:52:25.306Z,25.56
2022-09-10T09:53:29.200Z,25.54
2022-09-10T09:55:10.031Z,25.55
2022-09-10T09:56:08.301Z,25.52
2022-09-10T09:57:18.289Z,25.49
2022-09-10T09:58:26.844Z,25.45
2022-09-10T09:59:31.516Z,25.42
2022-09-10T10:00:36.433Z,25.39
2022-09-10T10:01:40.969Z,25.37
2022-09-10T10:02:44.473Z,25.35
2022-09-10T10:03:48.656Z,25.32
2022-09-10T10:04:55.690Z,25.33
2022-09-10T10:06:08.929Z,25.33
2022-09-10T10:07:12.041Z,25.31
2022-09-10T10:08:34.222Z,25.32
2022-09-10T10:09:45.700Z,25.32
2022-09-10T10:10:51.778Z,25.34
2022-09-10T10:11:59.574Z,25.37
2022-09-10T10:13:10.837Z,25.39
2022-09-10T10:14:20.312Z,25.41
2022-09-10T10:15:41.994Z,25.41
2022-09-10T10:16:45.908Z,25.41
2022-09-10T10:17:48.149Z,25.37
2022-09-10T10:18:50.742Z,25.34
2022-09-10T10:20:35.326Z,25.32
2022-09-10T10:21:40.936Z,25.27
2022-09-10T10:22:44.921Z,25.26
2022-09-10T10:23:48.059Z,25.23
2022-09-10T10:24:52.654Z,25.18
2022-09-10T10:25:55.543Z,25.14
2022-09-10T10:26:59.224Z,25.10
2022-09-10T10:28:01.877Z,25.08
2022-09-10T10:29:18.414Z,25.06
2022-09-10T10:30:24.038Z,25.02
2022-09-10T10:31:38.817Z,24.99
2022-09-10T10:32:58.757Z,24.96
2022-09-10T10:34:15.734Z,24.94
2022-09-10T10:35:29.211Z,24.91
2022-09-10T10:36:56.413Z,24.87
2022-09-10T10:38:25.342Z,24.81
2022-09-10T10:39:46.442Z,24.76
2022-09-10T10:41:03.567Z,24.72
2022-09-10T10:42:44.677Z,24.68
2022-09-10T10:43:56.167Z,24.64
2022-09-10T10:45:43.386Z,24.62
2022-09-10T10:47:06.824Z,24.61
2022-09-10T10:48:26.705Z,24.60
2022-09-10T10:49:43.579Z,24.58
2022-09-10T10:51:31.226Z,24.55
2022-09-10T10:52:55.082Z,24.50
2022-09-10T10:54:03.940Z,24.46
2022-09-10T10:55:21.208Z,24.41
2022-09-10T10:56:48.412Z,24.35
2022-09-10T10:58:09.273Z,24.29
2022-09-10T10:59:20.568Z,24.24
2022-09-10T11:00:23.398Z,24.20
2022-09-10T11:01:29.356Z,24.17
2022-09-10T11:02:43.491Z,24.10
2022-09-10T11:04:25.832Z,24.03
2022-09-10T11:05:32.474Z,23.99
2022-09-10T11:06:42.821Z,23.93
2022-09-10T11:07:45.868Z,23.90
2022-09-10T11:09:02.709Z,23.85
2022-09-10T11:10:25.539Z,23.80
2022-09-10T11:11:52.302Z,23.76
2022-09-10T11:13:16.508Z,23.71
2022-09-10T11:14:27.700Z,23.68
2022-09-10T11:15:37.764Z,23.66
2022-09-10T11:16:47.567Z,23.62
2022-09-10T11:17:59.137Z,23.60
2022-09-10T11:19:24.755Z,23.53
2022-09-10T11:20:39.408Z,23.49
2022-09-10T11:21:53.528Z,23.45
2022-09-10T11:23:56.628Z,23.39
2022-09-10T11:25:08.648Z,23.33
2022-09-10T11:26:23.908Z,23.30
2022-09-10T11:27:41.837Z,23.28
2022-09-10T11:29:04.463Z,23.26
2022-09-10T11:30:11.528Z,23.25
2022-09-10T11:31:30.570Z,23.24
2022-09-10T11:33:10.609Z,23.24
2022-09-10T11:34:24.480Z,23.24
2022-09-10T11:35:28.722Z,23.24
2022-09-10T11:36:45.447Z,23.25
2022-09-10T11:38:07.742Z,23.26
2022-09-10T11:39:36.277Z,23.25
2022-09-10T11:40:46.452Z,23.26
2022-09-10T11:41:52.717Z,23.28
2022-09-10T11:43:00.402Z,23.29
2022-09-10T11:44:21.200Z,23.30
2022-09-10T11:45:47.613Z,23.32
2022-09-10T11:47:26.120Z,23.34
2022-09-10T11:48:33.165Z,23.35
2022-09-10T11:49:52.217Z,23.39
2022-09-10T11:51:01.359Z,23.40
2022-09-10T11:52:05.876Z,23.43
2022-09-10T11:53:16.797Z,23.45
2022-09-10T11:54:31.553Z,23.47
2022-09-10T11:56:00.012Z,23.49
2022-09-10T11:57:27.056Z,23.51
2022-09-10T11:58:46.114Z,23.54
2022-09-10T12:00:18.336Z,23.56
2022-09-10T12:01:38.785Z,23.59
2022-09-10T12:03:14.235Z,23.58
2022-09-10T12:04:31.063Z,23.59
2022-09-10T12:05:33.147Z,23.60
2022-09-10T12:07:04.399Z,23.60
2022-09-10T12:08:39.660Z,23.60
2022-09-10T12:09:59.391Z,23.59
2022-09-10T12:11:21.013Z,23.60
2022-09-10T12:12:41.976Z,23.60
2022-09-10T12:13:45.843Z,23.60
2022-09-10T12:14:48.096Z,23.61
2022-09-10T12:15:58.651Z,23.61
2022-09-10T12:17:17.417Z,23.62
2022-09-10T12:18:24.578Z,23.63
2022-09-10T12:19:32.206Z,23.64
2022-09-10T12:20:42.332Z,23.66
2022-09-10T12:21:51.772Z,23.68
2022-09-10T12:22:56.063Z,23.69
2022-09-10T12:24:01.241Z,23.70
2022-09-10T12:25:06.727Z,23.73
2022-09-10T12:26:16.182Z,23.75
2022-09-10T12:27:20.079Z,23.74
2022-09-10T12:28:41.223Z,23.75
2022-09-10T12:29:43.415Z,23.74
2022-09-10T12:30:46.432Z,23.76
2022-09-10T12:32:21.932Z,23.76
2022-09-10T12:33:26.573Z,23.76
2022-09-10T12:34:28.829Z,23.76
2022-09-10T12:35:34.747Z,23.76
2022-09-10T12:36:37.281Z,23.75
2022-09-10T12:37:39.497Z,23.74
2022-09-10T12:39:16.498Z,23.73
2022-09-10T12:40:24.815Z,23.68
2022-09-10T12:41:27.360Z,23.67
2022-09-10T12:42:34.422Z,23.65
2022-09-10T12:43:39.755Z,23.62
2022-09-10T12:44:41.929Z,23.59
2022-09-10T12:46:08.924Z,23.57
2022-09-10T12:47:17.007Z,23.54
2022-09-10T12:48:20.550Z,23.50
2022-09-10T12:49:24.156Z,23.47
2022-09-10T12:50:37.216Z,23.42
2022-09-10T12:51:51.779Z,23.37
2022-09-10T12:53:24.506Z,23.33
2022-09-10T12:54:56.686Z,23.28
2022-09-10T12:56:40.494Z,23.25
2022-09-10T12:57:43.082Z,23.20
2022-09-10T12:59:12.587Z,23.16
2022-09-10T13:00:23.350Z,23.14
2022-09-10T13:01:52.116Z,23.11
2022-09-10T13:03:17.465Z,23.09
2022-09-10T13:04:43.488Z,23.07
2022-09-10T13:05:45.669Z,23.05
2022-09-10T13:06:48.137Z,23.02
2022-09-10T13:08:23.090Z,23.01
2022-09-10T13:09:40.660Z,23.00
2022-09-10T13:10:49.987Z,22.98
2022-09-10T13:11:56.669Z,22.97
2022-09-10T13:13:33.972Z,22.95
2022-09-10T13:14:39.766Z,22.95
2022-09-10T13:15:52.492Z,22.93
2022-09-10T13:16:55.555Z,22.91
2022-09-10T13:17:57.687Z,22.91
2022-09-10T13:19:19.514Z,22.88
2022-09-10T13:20:21.588Z,22.88
2022-09-10T13:21:23.669Z,22.85
2022-09-10T13:22:53.670Z,22.83
2022-09-10T13:23:57.499Z,22.81
2022-09-10T13:25:27.323Z,22.79
2022-09-10T13:26:33.843Z,22.76
2022-09-10T13:28:56.913Z,22.73
2022-09-10T13:30:22.519Z,22.73
2022-09-10T13:31:26.868Z,22.72
2022-09-10T13:32:38.100Z,22.70
2022-09-10T13:33:52.224Z,22.69
2022-09-10T13:35:22.284Z,22.68
2022-09-10T13:36:30.935Z,22.66
2022-09-10T13:37:33.025Z,22.64
2022-09-10T13:38:43.994Z,22.63
2022-09-10T13:40:06.310Z,22.61
2022-09-10T13:41:48.615Z,22.60
2022-09-10T13:43:12.452Z,22.60
2022-09-10T13:44:38.499Z,22.61
2022-09-10T13:45:50.855Z,22.59
2022-09-10T13:46:59.725Z,22.58
2022-09-10T13:48:30.846Z,22.57
2022-09-10T13:50:25.514Z,22.55
2022-09-10T13:51:51.820Z,22.56
2022-09-10T13:52:58.787Z,22.56
2022-09-10T13:54:09.231Z,22.56
2022-09-10T13:55:23.069Z,22.55
2022-09-10T13:56:28.192Z,22.56
2022-09-10T13:57:35.815Z,22.55
2022-09-10T13:58:48.577Z,22.54
2022-09-10T13:59:54.749Z,22.52
2022-09-10T14:01:02.971Z,22.53
2022-09-10T14:02:05.220Z,22.53
2022-09-10T14:03:23.360Z,22.50
2022-09-10T14:04:35.472Z,22.51
2022-09-10T14:05:57.965Z,22.50
2022-09-10T14:07:13.224Z,22.49
2022-09-10T14:08:44.672Z,22.48
2022-09-10T14:09:53.487Z,22.46
2022-09-10T14:10:59.951Z,22.44
2022-09-10T14:12:06.584Z,22.43
2022-09-10T14:13:09.426Z,22.40
2022-09-10T14:14:16.777Z,22.37
2022-09-10T14:15:26.166Z,22.34
2022-09-10T14:16:41.009Z,22.33
2022-09-10T14:17:52.114Z,22.29
2022-09-10T14:19:01.467Z,22.27
2022-09-10T14:20:18.117Z,22.24
2022-09-10T14:21:27.059Z,22.21
2022-09-10T14:22:31.912Z,22.19
2022-09-10T14:23:35.844Z,22.17
2022-09-10T14:24:37.900Z,22.14
2022-09-10T14:25:42.471Z,22.12
2022-09-10T14:27:04.861Z,22.08
2022-09-10T14:28:22.009Z,22.05
2022-09-10T14:29:25.416Z,22.04
2022-09-10T14:30:32.173Z,22.02
2022-09-10T14:31:36.930Z,21.99
2022-09-10T14:32:40.143Z,21.97
2022-09-10T14:33:42.369Z,21.94
2022-09-10T14:34:44.592Z,21.93
2022-09-10T14:35:51.591Z,21.92
2022-09-10T14:36:53.764Z,21.90
2022-09-10T14:37:55.985Z,21.90
2022-09-10T14:39:04.667Z,21.88
2022-09-10T14:40:28.257Z,21.87
2022-09-10T14:41:32.843Z,21.86
2022-09-10T14:42:35.637Z,21.87
2022-09-10T14:43:40.319Z,21.88
2022-09-10T14:44:45.697Z,21.86
2022-09-10T14:45:49.807Z,21.87
2022-09-10T14:46:56.446Z,21.87
2022-09-10T14:47:59.472Z,21.87
2022-09-10T14:49:11.101Z,21.86
2022-09-10T14:50:38.881Z,21.85
2022-09-10T14:51:41.078Z,21.84
2022-09-10T14:52:43.261Z,21.83
2022-09-10T14:53:50.425Z,21.84
2022-09-10T14:54:58.507Z,21.83